Página principal
METAR-TAF:

METAR-TAF

Aeroportos :

Kosrae, Micronésia

latitude: 05-21N, longitude: 162-57E, altura: 3 m

Observação actual do tempo

O boletim foi feito há 1 hora e 0 minutos, às 14:50 UTC
Vento 19 kt de oes-sudoeste
Temperatura 28°C
Humidade 79%
Pressão 1007 hPa
Visibilidade: 16.1 km
Nuvens fragmentadasa uma altura de 1700 ft
Nuvens fragmentadasa uma altura de 30000 ft

METAR: PTSA 231450Z 24019KT 10SM BKN017 BKN300 28/24 A2973

Hora: 02:50 (15:50 UTC)

Previsão

O boletim foi feito há 2 horas e 54 minutos, às 12:56 UTC
Previsão válida de 23 às 13 UTC a 24 às 12 UTC
Vento 11 kt de su-sudoeste
Visibilidade: 10 km
Nuvens dispersasa uma altura de 1700 ft
Nuvens dispersasa uma altura de 13000 ft
aguaceiros nas vizinhanças

TAF: PTSA 231256Z 2313/2412 21011KT P6SM VCSH SCT017 SCT130

Observações e previsões do tempo de mais de 4000 aeroportos (mensagens METAR e TAF).

As estações disponíveis são os pontos amarelos e vermelhos sobre o mapa.

Mova o rato sobre o mapa para ver o nome da estação.

Depois clique no ponto para visualizar as observações e previsões meteorológicas.

Para alterar o mapa : clique nos botões verdes com uma cruz preta para aumentar o zoom; no botão verde com uma pitada de zoom; ou nas setas verdes para mapas adjacentes.


METAR-TAF: